< < Back
Terminal Aerodrome Forecast


Current Version              Previous Versions:   1  2  3  4  5  6  7  8  9  

Terminal Aerodrome Forecast

970
FTUS42 KGSP 300500
TAFAVL
TAF
KAVL 300525Z 3006/3106 35006KT P6SM SKC
      TEMPO 3010/3012 5SM BR FEW007
     FM301200 33006KT P6SM FEW060=



Latest METAR

984
SAUS70 KWBC 301500 RRF
MTRAVL
METAR KAVL 301454Z 36008KT 10SM CLR 19/10 A3015 RMK AO2 SLP192 T01940100
51005


USA.gov is the U.S. government's official web portal to all federal, state and local government web resources and services.